sensor_id;sensor_type;location;lat;lon;timestamp;P1;durP1;ratioP1;P2;durP2;ratioP2
21878;SDS011;27908;42.708;23.278;2023-02-13T00:02:25;54.43;;;22.10;;
21878;SDS011;27908;42.708;23.278;2023-02-13T00:04:51;50.15;;;20.10;;
21878;SDS011;27908;42.708;23.278;2023-02-13T00:07:16;59.70;;;24.27;;
21878;SDS011;27908;42.708;23.278;2023-02-13T00:09:41;52.05;;;20.63;;
21878;SDS011;27908;42.708;23.278;2023-02-13T00:12:07;53.15;;;20.33;;
21878;SDS011;27908;42.708;23.278;2023-02-13T00:14:34;52.67;;;23.35;;
21878;SDS011;27908;42.708;23.278;2023-02-13T00:17:00;63.28;;;24.48;;
21878;SDS011;27908;42.708;23.278;2023-02-13T00:19:26;51.75;;;20.35;;
21878;SDS011;27908;42.708;23.278;2023-02-13T00:21:51;45.50;;;19.00;;
21878;SDS011;27908;42.708;23.278;2023-02-13T00:24:17;52.73;;;22.17;;
21878;SDS011;27908;42.708;23.278;2023-02-13T00:26:42;63.80;;;23.73;;
21878;SDS011;27908;42.708;23.278;2023-02-13T00:29:07;44.58;;;18.98;;
21878;SDS011;27908;42.708;23.278;2023-02-13T00:31:33;43.70;;;19.63;;
21878;SDS011;27908;42.708;23.278;2023-02-13T00:33:58;52.13;;;21.13;;
21878;SDS011;27908;42.708;23.278;2023-02-13T00:36:24;59.93;;;23.03;;
21878;SDS011;27908;42.708;23.278;2023-02-13T00:38:50;56.67;;;21.65;;
21878;SDS011;27908;42.708;23.278;2023-02-13T00:41:16;46.97;;;20.80;;
21878;SDS011;27908;42.708;23.278;2023-02-13T00:43:42;45.43;;;19.27;;
21878;SDS011;27908;42.708;23.278;2023-02-13T00:46:08;42.08;;;18.20;;
21878;SDS011;27908;42.708;23.278;2023-02-13T00:48:34;51.60;;;21.23;;
21878;SDS011;27908;42.708;23.278;2023-02-13T00:50:59;55.73;;;22.73;;
21878;SDS011;27908;42.708;23.278;2023-02-13T00:53:25;47.70;;;20.17;;
21878;SDS011;27908;42.708;23.278;2023-02-13T00:55:51;48.42;;;18.27;;
21878;SDS011;27908;42.708;23.278;2023-02-13T00:58:17;43.93;;;19.10;;
21878;SDS011;27908;42.708;23.278;2023-02-13T01:00:44;48.00;;;20.13;;
21878;SDS011;27908;42.708;23.278;2023-02-13T01:03:13;44.40;;;18.58;;
21878;SDS011;27908;42.708;23.278;2023-02-13T01:05:40;46.40;;;19.13;;
21878;SDS011;27908;42.708;23.278;2023-02-13T01:08:06;50.42;;;20.38;;
21878;SDS011;27908;42.708;23.278;2023-02-13T01:10:31;47.42;;;20.70;;
21878;SDS011;27908;42.708;23.278;2023-02-13T01:12:57;41.40;;;19.23;;
21878;SDS011;27908;42.708;23.278;2023-02-13T01:15:23;49.07;;;20.80;;
21878;SDS011;27908;42.708;23.278;2023-02-13T01:17:48;49.03;;;21.38;;
21878;SDS011;27908;42.708;23.278;2023-02-13T01:20:13;30.70;;;15.37;;
21878;SDS011;27908;42.708;23.278;2023-02-13T01:22:39;36.78;;;16.40;;
21878;SDS011;27908;42.708;23.278;2023-02-13T01:25:08;40.23;;;18.80;;
21878;SDS011;27908;42.708;23.278;2023-02-13T01:27:34;47.03;;;18.90;;
21878;SDS011;27908;42.708;23.278;2023-02-13T01:29:59;40.97;;;16.10;;
21878;SDS011;27908;42.708;23.278;2023-02-13T01:32:25;52.47;;;20.17;;
21878;SDS011;27908;42.708;23.278;2023-02-13T01:34:50;49.87;;;20.03;;
21878;SDS011;27908;42.708;23.278;2023-02-13T01:37:16;49.57;;;21.17;;
21878;SDS011;27908;42.708;23.278;2023-02-13T01:39:41;44.78;;;19.05;;
21878;SDS011;27908;42.708;23.278;2023-02-13T01:42:20;32.03;;;15.00;;
21878;SDS011;27908;42.708;23.278;2023-02-13T01:44:50;44.42;;;17.92;;
21878;SDS011;27908;42.708;23.278;2023-02-13T01:47:24;40.20;;;18.42;;
21878;SDS011;27908;42.708;23.278;2023-02-13T01:50:04;49.63;;;18.90;;
21878;SDS011;27908;42.708;23.278;2023-02-13T01:52:34;46.38;;;18.92;;
21878;SDS011;27908;42.708;23.278;2023-02-13T01:55:02;50.92;;;20.75;;
21878;SDS011;27908;42.708;23.278;2023-02-13T01:57:30;49.17;;;21.38;;
21878;SDS011;27908;42.708;23.278;2023-02-13T01:59:59;51.85;;;19.70;;
21878;SDS011;27908;42.708;23.278;2023-02-13T02:02:31;46.70;;;19.07;;
21878;SDS011;27908;42.708;23.278;2023-02-13T02:05:01;49.28;;;19.42;;
21878;SDS011;27908;42.708;23.278;2023-02-13T02:07:29;53.58;;;21.00;;
21878;SDS011;27908;42.708;23.278;2023-02-13T02:09:57;56.17;;;21.35;;
21878;SDS011;27908;42.708;23.278;2023-02-13T02:12:28;50.20;;;19.10;;
21878;SDS011;27908;42.708;23.278;2023-02-13T02:15:00;46.73;;;20.73;;
21878;SDS011;27908;42.708;23.278;2023-02-13T02:17:28;46.80;;;20.15;;
21878;SDS011;27908;42.708;23.278;2023-02-13T02:20:12;47.50;;;19.13;;
21878;SDS011;27908;42.708;23.278;2023-02-13T02:50:14;63.03;;;22.83;;
21878;SDS011;27908;42.708;23.278;2023-02-13T03:01:07;56.28;;;21.88;;
21878;SDS011;27908;42.708;23.278;2023-02-13T03:03:55;43.23;;;19.33;;
21878;SDS011;27908;42.708;23.278;2023-02-13T03:09:30;50.85;;;22.02;;
21878;SDS011;27908;42.708;23.278;2023-02-13T03:12:20;61.97;;;24.38;;
21878;SDS011;27908;42.708;23.278;2023-02-13T03:15:07;62.28;;;22.65;;
21878;SDS011;27908;42.708;23.278;2023-02-13T03:17:33;53.00;;;22.10;;
21878;SDS011;27908;42.708;23.278;2023-02-13T03:23:12;53.63;;;22.23;;
21878;SDS011;27908;42.708;23.278;2023-02-13T03:31:48;49.43;;;19.93;;
21878;SDS011;27908;42.708;23.278;2023-02-13T03:34:25;51.47;;;20.25;;
21878;SDS011;27908;42.708;23.278;2023-02-13T03:37:17;52.78;;;19.17;;
21878;SDS011;27908;42.708;23.278;2023-02-13T03:40:08;46.85;;;20.67;;
21878;SDS011;27908;42.708;23.278;2023-02-13T03:42:47;46.13;;;20.40;;
21878;SDS011;27908;42.708;23.278;2023-02-13T03:45:31;47.07;;;17.97;;
21878;SDS011;27908;42.708;23.278;2023-02-13T03:48:20;58.25;;;20.88;;
21878;SDS011;27908;42.708;23.278;2023-02-13T03:51:24;52.28;;;21.92;;
21878;SDS011;27908;42.708;23.278;2023-02-13T03:53:55;45.83;;;19.00;;
21878;SDS011;27908;42.708;23.278;2023-02-13T03:56:23;49.50;;;19.88;;
21878;SDS011;27908;42.708;23.278;2023-02-13T03:59:14;48.90;;;19.90;;
21878;SDS011;27908;42.708;23.278;2023-02-13T04:01:48;45.72;;;19.75;;
21878;SDS011;27908;42.708;23.278;2023-02-13T04:04:25;48.05;;;22.25;;
21878;SDS011;27908;42.708;23.278;2023-02-13T04:07:07;52.72;;;20.83;;
21878;SDS011;27908;42.708;23.278;2023-02-13T04:09:53;44.63;;;20.13;;
21878;SDS011;27908;42.708;23.278;2023-02-13T04:12:25;51.50;;;20.73;;
21878;SDS011;27908;42.708;23.278;2023-02-13T04:15:18;58.90;;;21.58;;
21878;SDS011;27908;42.708;23.278;2023-02-13T04:18:09;50.33;;;21.23;;
21878;SDS011;27908;42.708;23.278;2023-02-13T04:20:37;44.08;;;18.88;;
21878;SDS011;27908;42.708;23.278;2023-02-13T04:23:04;50.28;;;22.98;;
21878;SDS011;27908;42.708;23.278;2023-02-13T04:25:31;53.13;;;20.93;;
21878;SDS011;27908;42.708;23.278;2023-02-13T04:27:56;48.72;;;20.88;;
21878;SDS011;27908;42.708;23.278;2023-02-13T04:30:22;56.13;;;22.27;;
21878;SDS011;27908;42.708;23.278;2023-02-13T04:32:47;57.40;;;24.00;;
21878;SDS011;27908;42.708;23.278;2023-02-13T04:35:13;49.90;;;21.05;;
21878;SDS011;27908;42.708;23.278;2023-02-13T04:37:38;54.80;;;21.23;;
21878;SDS011;27908;42.708;23.278;2023-02-13T04:40:04;54.47;;;22.87;;
21878;SDS011;27908;42.708;23.278;2023-02-13T04:42:30;55.25;;;21.45;;
21878;SDS011;27908;42.708;23.278;2023-02-13T04:44:55;52.50;;;22.13;;
21878;SDS011;27908;42.708;23.278;2023-02-13T04:47:21;54.50;;;22.42;;
21878;SDS011;27908;42.708;23.278;2023-02-13T04:49:46;49.50;;;21.23;;
21878;SDS011;27908;42.708;23.278;2023-02-13T04:52:12;49.53;;;19.70;;
21878;SDS011;27908;42.708;23.278;2023-02-13T04:54:39;54.83;;;22.77;;
21878;SDS011;27908;42.708;23.278;2023-02-13T04:57:04;50.67;;;19.80;;
21878;SDS011;27908;42.708;23.278;2023-02-13T04:59:30;68.73;;;27.07;;
21878;SDS011;27908;42.708;23.278;2023-02-13T05:01:55;56.63;;;22.57;;
21878;SDS011;27908;42.708;23.278;2023-02-13T05:04:21;75.53;;;28.02;;
21878;SDS011;27908;42.708;23.278;2023-02-13T05:06:46;75.33;;;28.30;;
21878;SDS011;27908;42.708;23.278;2023-02-13T05:09:11;57.80;;;24.20;;
21878;SDS011;27908;42.708;23.278;2023-02-13T05:11:37;61.60;;;24.63;;
21878;SDS011;27908;42.708;23.278;2023-02-13T05:14:02;59.37;;;24.00;;
21878;SDS011;27908;42.708;23.278;2023-02-13T05:16:28;58.90;;;23.05;;
21878;SDS011;27908;42.708;23.278;2023-02-13T05:18:53;59.07;;;22.77;;
21878;SDS011;27908;42.708;23.278;2023-02-13T05:21:19;54.40;;;24.80;;
21878;SDS011;27908;42.708;23.278;2023-02-13T05:24:11;59.53;;;23.60;;
21878;SDS011;27908;42.708;23.278;2023-02-13T05:26:36;57.50;;;24.10;;
21878;SDS011;27908;42.708;23.278;2023-02-13T05:29:02;71.23;;;25.27;;
21878;SDS011;27908;42.708;23.278;2023-02-13T05:31:50;59.33;;;23.67;;
21878;SDS011;27908;42.708;23.278;2023-02-13T05:34:18;56.65;;;23.42;;
21878;SDS011;27908;42.708;23.278;2023-02-13T05:36:45;63.20;;;24.42;;
21878;SDS011;27908;42.708;23.278;2023-02-13T05:39:10;63.10;;;23.60;;
21878;SDS011;27908;42.708;23.278;2023-02-13T05:41:36;53.20;;;23.88;;
21878;SDS011;27908;42.708;23.278;2023-02-13T05:44:02;54.90;;;23.73;;
21878;SDS011;27908;42.708;23.278;2023-02-13T05:46:30;53.22;;;20.00;;
21878;SDS011;27908;42.708;23.278;2023-02-13T05:48:56;58.75;;;23.02;;
21878;SDS011;27908;42.708;23.278;2023-02-13T05:51:22;62.27;;;25.33;;
21878;SDS011;27908;42.708;23.278;2023-02-13T05:53:47;63.60;;;25.70;;
21878;SDS011;27908;42.708;23.278;2023-02-13T05:56:12;72.00;;;26.70;;
21878;SDS011;27908;42.708;23.278;2023-02-13T05:58:38;59.85;;;25.17;;
21878;SDS011;27908;42.708;23.278;2023-02-13T06:01:04;56.70;;;24.52;;
21878;SDS011;27908;42.708;23.278;2023-02-13T06:03:30;62.25;;;24.40;;
21878;SDS011;27908;42.708;23.278;2023-02-13T06:05:56;61.90;;;24.50;;
21878;SDS011;27908;42.708;23.278;2023-02-13T06:08:22;60.00;;;25.73;;
21878;SDS011;27908;42.708;23.278;2023-02-13T06:10:48;63.20;;;27.08;;
21878;SDS011;27908;42.708;23.278;2023-02-13T06:13:14;65.70;;;25.98;;
21878;SDS011;27908;42.708;23.278;2023-02-13T06:15:40;67.87;;;30.67;;
21878;SDS011;27908;42.708;23.278;2023-02-13T06:18:05;66.20;;;26.37;;
21878;SDS011;27908;42.708;23.278;2023-02-13T06:20:31;72.63;;;31.38;;
21878;SDS011;27908;42.708;23.278;2023-02-13T06:22:57;87.60;;;33.77;;
21878;SDS011;27908;42.708;23.278;2023-02-13T06:25:22;86.80;;;33.30;;
21878;SDS011;27908;42.708;23.278;2023-02-13T06:27:48;75.30;;;30.40;;
21878;SDS011;27908;42.708;23.278;2023-02-13T06:30:14;76.03;;;33.67;;
21878;SDS011;27908;42.708;23.278;2023-02-13T06:32:40;85.50;;;35.72;;
21878;SDS011;27908;42.708;23.278;2023-02-13T06:35:06;90.93;;;37.42;;
21878;SDS011;27908;42.708;23.278;2023-02-13T06:37:32;126.15;;;47.97;;
21878;SDS011;27908;42.708;23.278;2023-02-13T06:39:57;113.73;;;44.30;;
21878;SDS011;27908;42.708;23.278;2023-02-13T06:42:23;103.50;;;41.60;;
21878;SDS011;27908;42.708;23.278;2023-02-13T06:44:48;123.57;;;47.97;;
21878;SDS011;27908;42.708;23.278;2023-02-13T06:47:14;109.60;;;42.03;;
21878;SDS011;27908;42.708;23.278;2023-02-13T06:49:39;95.37;;;39.03;;
21878;SDS011;27908;42.708;23.278;2023-02-13T06:52:05;88.63;;;35.83;;
21878;SDS011;27908;42.708;23.278;2023-02-13T06:54:30;104.03;;;44.83;;
21878;SDS011;27908;42.708;23.278;2023-02-13T06:56:55;97.67;;;40.77;;
21878;SDS011;27908;42.708;23.278;2023-02-13T06:59:21;89.28;;;36.47;;
21878;SDS011;27908;42.708;23.278;2023-02-13T07:01:46;67.60;;;30.70;;
21878;SDS011;27908;42.708;23.278;2023-02-13T07:04:12;86.00;;;36.90;;
21878;SDS011;27908;42.708;23.278;2023-02-13T07:06:37;92.37;;;37.90;;
21878;SDS011;27908;42.708;23.278;2023-02-13T07:09:03;84.40;;;35.78;;
21878;SDS011;27908;42.708;23.278;2023-02-13T07:11:29;80.83;;;32.93;;
21878;SDS011;27908;42.708;23.278;2023-02-13T07:13:55;89.30;;;38.03;;
21878;SDS011;27908;42.708;23.278;2023-02-13T07:16:20;93.00;;;38.42;;
21878;SDS011;27908;42.708;23.278;2023-02-13T07:18:46;100.87;;;43.27;;
21878;SDS011;27908;42.708;23.278;2023-02-13T07:21:11;70.93;;;34.43;;
21878;SDS011;27908;42.708;23.278;2023-02-13T07:23:37;90.75;;;38.28;;
21878;SDS011;27908;42.708;23.278;2023-02-13T07:26:02;65.43;;;27.80;;
21878;SDS011;27908;42.708;23.278;2023-02-13T07:28:28;101.57;;;44.15;;
21878;SDS011;27908;42.708;23.278;2023-02-13T07:30:54;106.60;;;45.30;;
21878;SDS011;27908;42.708;23.278;2023-02-13T07:33:19;88.68;;;40.53;;
21878;SDS011;27908;42.708;23.278;2023-02-13T07:35:49;75.23;;;34.53;;
21878;SDS011;27908;42.708;23.278;2023-02-13T07:38:16;100.78;;;42.63;;
21878;SDS011;27908;42.708;23.278;2023-02-13T07:40:42;77.32;;;36.30;;
21878;SDS011;27908;42.708;23.278;2023-02-13T07:43:07;58.17;;;27.10;;
21878;SDS011;27908;42.708;23.278;2023-02-13T07:45:33;70.93;;;31.50;;
21878;SDS011;27908;42.708;23.278;2023-02-13T07:47:59;71.23;;;28.97;;
21878;SDS011;27908;42.708;23.278;2023-02-13T07:50:24;63.73;;;28.73;;
21878;SDS011;27908;42.708;23.278;2023-02-13T07:52:59;70.55;;;29.88;;
21878;SDS011;27908;42.708;23.278;2023-02-13T07:55:26;64.30;;;25.77;;
21878;SDS011;27908;42.708;23.278;2023-02-13T07:57:53;68.93;;;29.55;;
21878;SDS011;27908;42.708;23.278;2023-02-13T08:00:18;64.03;;;26.67;;
21878;SDS011;27908;42.708;23.278;2023-02-13T08:02:45;76.07;;;28.98;;
21878;SDS011;27908;42.708;23.278;2023-02-13T08:05:11;63.77;;;28.00;;
21878;SDS011;27908;42.708;23.278;2023-02-13T08:07:37;66.03;;;27.20;;
21878;SDS011;27908;42.708;23.278;2023-02-13T08:10:03;72.50;;;31.20;;
21878;SDS011;27908;42.708;23.278;2023-02-13T08:12:50;77.25;;;32.00;;
21878;SDS011;27908;42.708;23.278;2023-02-13T08:15:16;58.10;;;25.08;;
21878;SDS011;27908;42.708;23.278;2023-02-13T08:17:42;47.17;;;23.43;;
21878;SDS011;27908;42.708;23.278;2023-02-13T08:20:07;76.40;;;32.47;;
21878;SDS011;27908;42.708;23.278;2023-02-13T08:22:34;78.55;;;31.02;;
21878;SDS011;27908;42.708;23.278;2023-02-13T08:25:01;74.68;;;31.13;;
21878;SDS011;27908;42.708;23.278;2023-02-13T08:27:30;67.50;;;28.67;;
21878;SDS011;27908;42.708;23.278;2023-02-13T08:29:56;71.20;;;28.23;;
21878;SDS011;27908;42.708;23.278;2023-02-13T08:32:22;59.92;;;26.75;;
21878;SDS011;27908;42.708;23.278;2023-02-13T08:34:48;64.22;;;24.58;;
21878;SDS011;27908;42.708;23.278;2023-02-13T08:37:14;62.87;;;26.27;;
21878;SDS011;27908;42.708;23.278;2023-02-13T08:39:39;60.30;;;24.47;;
21878;SDS011;27908;42.708;23.278;2023-02-13T08:42:05;68.80;;;26.25;;
21878;SDS011;27908;42.708;23.278;2023-02-13T08:44:31;59.87;;;23.83;;
21878;SDS011;27908;42.708;23.278;2023-02-13T08:46:57;53.03;;;22.15;;
21878;SDS011;27908;42.708;23.278;2023-02-13T08:49:22;52.90;;;22.43;;
21878;SDS011;27908;42.708;23.278;2023-02-13T08:51:48;56.27;;;21.60;;
21878;SDS011;27908;42.708;23.278;2023-02-13T08:54:14;50.55;;;22.58;;
21878;SDS011;27908;42.708;23.278;2023-02-13T08:56:41;54.03;;;22.27;;
21878;SDS011;27908;42.708;23.278;2023-02-13T08:59:07;49.90;;;22.90;;
21878;SDS011;27908;42.708;23.278;2023-02-13T09:01:32;56.20;;;21.95;;
21878;SDS011;27908;42.708;23.278;2023-02-13T09:03:58;58.27;;;21.70;;
21878;SDS011;27908;42.708;23.278;2023-02-13T09:06:23;45.13;;;19.70;;
21878;SDS011;27908;42.708;23.278;2023-02-13T09:08:50;43.65;;;19.35;;
21878;SDS011;27908;42.708;23.278;2023-02-13T09:11:16;51.38;;;21.30;;
21878;SDS011;27908;42.708;23.278;2023-02-13T09:13:41;50.63;;;21.63;;
21878;SDS011;27908;42.708;23.278;2023-02-13T09:16:07;55.42;;;20.23;;
21878;SDS011;27908;42.708;23.278;2023-02-13T09:18:33;53.37;;;23.00;;
21878;SDS011;27908;42.708;23.278;2023-02-13T09:21:09;56.70;;;25.27;;
21878;SDS011;27908;42.708;23.278;2023-02-13T09:23:37;50.15;;;20.05;;
21878;SDS011;27908;42.708;23.278;2023-02-13T09:26:05;58.55;;;21.83;;
21878;SDS011;27908;42.708;23.278;2023-02-13T09:28:35;58.53;;;21.87;;
21878;SDS011;27908;42.708;23.278;2023-02-13T09:31:08;60.42;;;22.75;;
21878;SDS011;27908;42.708;23.278;2023-02-13T09:33:41;51.10;;;19.73;;
21878;SDS011;27908;42.708;23.278;2023-02-13T09:36:08;60.95;;;22.23;;
21878;SDS011;27908;42.708;23.278;2023-02-13T09:38:37;55.05;;;23.55;;
21878;SDS011;27908;42.708;23.278;2023-02-13T09:41:07;58.10;;;21.83;;
21878;SDS011;27908;42.708;23.278;2023-02-13T09:43:42;49.28;;;21.65;;
21878;SDS011;27908;42.708;23.278;2023-02-13T09:46:13;57.85;;;21.23;;
21878;SDS011;27908;42.708;23.278;2023-02-13T09:48:43;44.60;;;19.42;;
21878;SDS011;27908;42.708;23.278;2023-02-13T09:51:16;52.17;;;20.40;;
21878;SDS011;27908;42.708;23.278;2023-02-13T09:54:05;52.05;;;20.38;;
21878;SDS011;27908;42.708;23.278;2023-02-13T10:07:36;52.85;;;20.20;;
21878;SDS011;27908;42.708;23.278;2023-02-13T10:21:22;35.17;;;15.10;;
21878;SDS011;27908;42.708;23.278;2023-02-13T10:26:26;38.50;;;16.58;;
21878;SDS011;27908;42.708;23.278;2023-02-13T10:32:09;41.47;;;16.43;;
21878;SDS011;27908;42.708;23.278;2023-02-13T10:34:44;38.40;;;16.50;;
21878;SDS011;27908;42.708;23.278;2023-02-13T10:37:15;48.22;;;19.80;;
21878;SDS011;27908;42.708;23.278;2023-02-13T10:39:49;45.88;;;18.02;;
21878;SDS011;27908;42.708;23.278;2023-02-13T10:42:28;48.30;;;18.13;;
21878;SDS011;27908;42.708;23.278;2023-02-13T11:02:25;40.25;;;15.65;;
21878;SDS011;27908;42.708;23.278;2023-02-13T11:05:03;41.53;;;16.70;;
21878;SDS011;27908;42.708;23.278;2023-02-13T11:07:32;46.40;;;17.30;;
21878;SDS011;27908;42.708;23.278;2023-02-13T11:10:02;40.63;;;17.27;;
21878;SDS011;27908;42.708;23.278;2023-02-13T11:12:37;25.80;;;11.40;;
21878;SDS011;27908;42.708;23.278;2023-02-13T11:15:04;37.83;;;14.43;;
21878;SDS011;27908;42.708;23.278;2023-02-13T11:17:36;35.47;;;14.40;;
21878;SDS011;27908;42.708;23.278;2023-02-13T11:28:37;30.35;;;13.25;;
21878;SDS011;27908;42.708;23.278;2023-02-13T11:33:56;23.45;;;11.65;;
21878;SDS011;27908;42.708;23.278;2023-02-13T11:36:24;25.88;;;11.52;;
21878;SDS011;27908;42.708;23.278;2023-02-13T11:38:58;28.45;;;12.25;;
21878;SDS011;27908;42.708;23.278;2023-02-13T11:41:26;28.85;;;12.30;;
21878;SDS011;27908;42.708;23.278;2023-02-13T11:43:53;26.10;;;10.33;;
21878;SDS011;27908;42.708;23.278;2023-02-13T11:46:28;25.60;;;11.98;;
21878;SDS011;27908;42.708;23.278;2023-02-13T11:49:04;25.17;;;11.00;;
21878;SDS011;27908;42.708;23.278;2023-02-13T11:51:34;27.25;;;10.23;;
21878;SDS011;27908;42.708;23.278;2023-02-13T11:54:00;29.85;;;10.95;;
21878;SDS011;27908;42.708;23.278;2023-02-13T11:56:26;26.13;;;10.23;;
21878;SDS011;27908;42.708;23.278;2023-02-13T11:58:59;20.70;;;9.50;;
21878;SDS011;27908;42.708;23.278;2023-02-13T12:01:26;24.45;;;10.32;;
21878;SDS011;27908;42.708;23.278;2023-02-13T12:03:57;24.92;;;9.40;;
21878;SDS011;27908;42.708;23.278;2023-02-13T12:06:27;20.83;;;10.52;;
21878;SDS011;27908;42.708;23.278;2023-02-13T12:08:53;20.60;;;8.57;;
21878;SDS011;27908;42.708;23.278;2023-02-13T12:11:24;21.70;;;9.52;;
21878;SDS011;27908;42.708;23.278;2023-02-13T12:14:03;24.90;;;9.73;;
21878;SDS011;27908;42.708;23.278;2023-02-13T12:16:31;18.90;;;8.00;;
21878;SDS011;27908;42.708;23.278;2023-02-13T12:19:02;20.92;;;8.88;;
21878;SDS011;27908;42.708;23.278;2023-02-13T12:24:45;18.55;;;7.63;;
21878;SDS011;27908;42.708;23.278;2023-02-13T12:27:44;21.23;;;8.55;;
21878;SDS011;27908;42.708;23.278;2023-02-13T12:36:13;20.33;;;7.90;;
21878;SDS011;27908;42.708;23.278;2023-02-13T12:44:36;18.87;;;7.80;;
21878;SDS011;27908;42.708;23.278;2023-02-13T12:47:22;20.98;;;8.40;;
21878;SDS011;27908;42.708;23.278;2023-02-13T13:09:34;21.60;;;9.13;;
21878;SDS011;27908;42.708;23.278;2023-02-13T13:12:06;15.63;;;7.37;;
21878;SDS011;27908;42.708;23.278;2023-02-13T13:17:39;17.13;;;7.88;;
21878;SDS011;27908;42.708;23.278;2023-02-13T13:28:28;21.13;;;8.48;;
21878;SDS011;27908;42.708;23.278;2023-02-13T13:31:00;18.48;;;7.97;;
21878;SDS011;27908;42.708;23.278;2023-02-13T13:33:27;20.23;;;8.40;;
21878;SDS011;27908;42.708;23.278;2023-02-13T13:35:56;17.53;;;9.10;;
21878;SDS011;27908;42.708;23.278;2023-02-13T13:44:36;17.67;;;8.47;;
21878;SDS011;27908;42.708;23.278;2023-02-13T13:50:18;20.15;;;9.07;;
21878;SDS011;27908;42.708;23.278;2023-02-13T14:03:59;19.50;;;9.18;;
21878;SDS011;27908;42.708;23.278;2023-02-13T14:14:49;17.17;;;7.80;;
21878;SDS011;27908;42.708;23.278;2023-02-13T14:17:17;22.33;;;9.60;;
21878;SDS011;27908;42.708;23.278;2023-02-13T14:23:12;19.10;;;7.22;;
21878;SDS011;27908;42.708;23.278;2023-02-13T14:25:38;22.93;;;9.40;;
21878;SDS011;27908;42.708;23.278;2023-02-13T14:28:04;20.83;;;9.70;;
21878;SDS011;27908;42.708;23.278;2023-02-13T14:30:34;24.30;;;10.15;;
21878;SDS011;27908;42.708;23.278;2023-02-13T14:33:03;19.30;;;9.53;;
21878;SDS011;27908;42.708;23.278;2023-02-13T14:35:35;20.30;;;9.95;;
21878;SDS011;27908;42.708;23.278;2023-02-13T14:38:06;22.40;;;9.82;;
21878;SDS011;27908;42.708;23.278;2023-02-13T14:48:39;17.33;;;8.53;;
21878;SDS011;27908;42.708;23.278;2023-02-13T14:51:17;24.83;;;10.40;;
21878;SDS011;27908;42.708;23.278;2023-02-13T14:53:53;24.60;;;9.40;;
21878;SDS011;27908;42.708;23.278;2023-02-13T14:56:25;23.88;;;9.85;;
21878;SDS011;27908;42.708;23.278;2023-02-13T14:58:52;19.67;;;7.90;;
21878;SDS011;27908;42.708;23.278;2023-02-13T15:01:30;19.05;;;9.43;;
21878;SDS011;27908;42.708;23.278;2023-02-13T15:03:59;22.53;;;9.27;;
21878;SDS011;27908;42.708;23.278;2023-02-13T15:06:49;25.80;;;10.75;;
21878;SDS011;27908;42.708;23.278;2023-02-13T15:09:19;21.13;;;8.90;;
21878;SDS011;27908;42.708;23.278;2023-02-13T15:11:50;21.90;;;9.07;;
21878;SDS011;27908;42.708;23.278;2023-02-13T15:14:20;20.83;;;9.07;;
21878;SDS011;27908;42.708;23.278;2023-02-13T15:17:06;20.67;;;9.90;;
21878;SDS011;27908;42.708;23.278;2023-02-13T15:19:42;19.13;;;8.65;;
21878;SDS011;27908;42.708;23.278;2023-02-13T15:22:14;22.30;;;9.47;;
21878;SDS011;27908;42.708;23.278;2023-02-13T15:24:44;22.10;;;8.77;;
21878;SDS011;27908;42.708;23.278;2023-02-13T15:27:15;22.42;;;9.10;;
21878;SDS011;27908;42.708;23.278;2023-02-13T15:29:53;22.63;;;9.35;;
21878;SDS011;27908;42.708;23.278;2023-02-13T15:32:28;21.77;;;9.68;;
21878;SDS011;27908;42.708;23.278;2023-02-13T15:35:01;16.13;;;7.13;;
21878;SDS011;27908;42.708;23.278;2023-02-13T15:37:41;26.08;;;9.75;;
21878;SDS011;27908;42.708;23.278;2023-02-13T15:40:13;20.73;;;9.47;;
21878;SDS011;27908;42.708;23.278;2023-02-13T15:42:40;20.05;;;9.20;;
21878;SDS011;27908;42.708;23.278;2023-02-13T15:45:11;18.20;;;8.37;;
21878;SDS011;27908;42.708;23.278;2023-02-13T15:47:38;21.48;;;9.80;;
21878;SDS011;27908;42.708;23.278;2023-02-13T15:50:11;22.95;;;11.40;;
21878;SDS011;27908;42.708;23.278;2023-02-13T15:52:41;22.33;;;9.88;;
21878;SDS011;27908;42.708;23.278;2023-02-13T15:55:16;22.47;;;9.73;;
21878;SDS011;27908;42.708;23.278;2023-02-13T15:57:42;20.13;;;9.50;;
21878;SDS011;27908;42.708;23.278;2023-02-13T16:00:12;23.03;;;9.93;;
21878;SDS011;27908;42.708;23.278;2023-02-13T16:02:44;28.02;;;9.68;;
21878;SDS011;27908;42.708;23.278;2023-02-13T16:05:11;19.13;;;8.20;;
21878;SDS011;27908;42.708;23.278;2023-02-13T16:07:48;22.33;;;8.98;;
21878;SDS011;27908;42.708;23.278;2023-02-13T16:12:45;25.67;;;10.83;;
21878;SDS011;27908;42.708;23.278;2023-02-13T16:15:16;25.98;;;10.70;;
21878;SDS011;27908;42.708;23.278;2023-02-13T16:17:45;23.42;;;10.68;;
21878;SDS011;27908;42.708;23.278;2023-02-13T16:27:35;23.27;;;10.83;;
21878;SDS011;27908;42.708;23.278;2023-02-13T16:30:02;29.90;;;11.80;;
21878;SDS011;27908;42.708;23.278;2023-02-13T16:32:30;28.48;;;11.90;;
21878;SDS011;27908;42.708;23.278;2023-02-13T16:37:53;28.38;;;12.02;;
21878;SDS011;27908;42.708;23.278;2023-02-13T16:40:42;26.45;;;10.90;;
21878;SDS011;27908;42.708;23.278;2023-02-13T16:46:11;24.67;;;11.10;;
21878;SDS011;27908;42.708;23.278;2023-02-13T16:51:22;27.75;;;11.88;;
21878;SDS011;27908;42.708;23.278;2023-02-13T16:54:01;22.58;;;9.73;;
21878;SDS011;27908;42.708;23.278;2023-02-13T17:02:00;28.77;;;11.63;;
21878;SDS011;27908;42.708;23.278;2023-02-13T17:04:41;27.27;;;11.10;;
21878;SDS011;27908;42.708;23.278;2023-02-13T17:07:12;25.42;;;12.43;;
21878;SDS011;27908;42.708;23.278;2023-02-13T17:09:51;17.88;;;8.13;;
21878;SDS011;27908;42.708;23.278;2023-02-13T17:12:18;26.95;;;12.23;;
21878;SDS011;27908;42.708;23.278;2023-02-13T17:14:44;28.63;;;11.50;;
21878;SDS011;27908;42.708;23.278;2023-02-13T17:17:11;18.42;;;8.27;;
21878;SDS011;27908;42.708;23.278;2023-02-13T17:19:38;25.27;;;11.30;;
21878;SDS011;27908;42.708;23.278;2023-02-13T17:22:03;26.53;;;11.00;;
21878;SDS011;27908;42.708;23.278;2023-02-13T17:24:29;19.88;;;9.05;;
21878;SDS011;27908;42.708;23.278;2023-02-13T17:26:55;27.40;;;12.93;;
21878;SDS011;27908;42.708;23.278;2023-02-13T17:29:20;21.57;;;10.23;;
21878;SDS011;27908;42.708;23.278;2023-02-13T17:31:45;27.73;;;11.52;;
21878;SDS011;27908;42.708;23.278;2023-02-13T17:34:13;31.70;;;11.77;;
21878;SDS011;27908;42.708;23.278;2023-02-13T17:36:38;29.55;;;13.57;;
21878;SDS011;27908;42.708;23.278;2023-02-13T17:39:04;29.30;;;13.17;;
21878;SDS011;27908;42.708;23.278;2023-02-13T17:41:29;27.30;;;12.93;;
21878;SDS011;27908;42.708;23.278;2023-02-13T17:43:55;29.80;;;12.23;;
21878;SDS011;27908;42.708;23.278;2023-02-13T17:46:20;31.30;;;13.30;;
21878;SDS011;27908;42.708;23.278;2023-02-13T17:48:45;30.33;;;13.13;;
21878;SDS011;27908;42.708;23.278;2023-02-13T17:51:14;27.70;;;11.23;;
21878;SDS011;27908;42.708;23.278;2023-02-13T17:53:39;31.92;;;13.10;;
21878;SDS011;27908;42.708;23.278;2023-02-13T17:56:05;28.03;;;11.93;;
21878;SDS011;27908;42.708;23.278;2023-02-13T17:58:30;30.47;;;13.10;;
21878;SDS011;27908;42.708;23.278;2023-02-13T18:00:56;28.90;;;12.50;;